sensor_id;sensor_type;location;lat;lon;timestamp;P1;durP1;ratioP1;P2;durP2;ratioP2
38425;SDS011;24210;51.460;6.148;2023-03-03T00:01:51;35.40;;;17.77;;
38425;SDS011;24210;51.460;6.148;2023-03-03T00:04:16;48.00;;;26.57;;
38425;SDS011;24210;51.460;6.148;2023-03-03T00:06:41;45.67;;;23.77;;
38425;SDS011;24210;51.460;6.148;2023-03-03T00:11:33;42.30;;;23.65;;
38425;SDS011;24210;51.460;6.148;2023-03-03T00:13:58;39.77;;;22.17;;
38425;SDS011;24210;51.460;6.148;2023-03-03T00:16:25;38.93;;;22.93;;
38425;SDS011;24210;51.460;6.148;2023-03-03T00:18:51;34.30;;;19.40;;
38425;SDS011;24210;51.460;6.148;2023-03-03T00:21:22;36.27;;;21.93;;
38425;SDS011;24210;51.460;6.148;2023-03-03T00:23:47;38.38;;;22.42;;
38425;SDS011;24210;51.460;6.148;2023-03-03T00:26:25;37.37;;;18.83;;
38425;SDS011;24210;51.460;6.148;2023-03-03T00:28:51;37.35;;;22.65;;
38425;SDS011;24210;51.460;6.148;2023-03-03T00:31:17;39.17;;;23.80;;
38425;SDS011;24210;51.460;6.148;2023-03-03T00:33:50;35.60;;;19.70;;
38425;SDS011;24210;51.460;6.148;2023-03-03T00:38:46;47.10;;;22.85;;
38425;SDS011;24210;51.460;6.148;2023-03-03T00:41:29;34.73;;;20.63;;
38425;SDS011;24210;51.460;6.148;2023-03-03T00:43:54;30.67;;;17.77;;
38425;SDS011;24210;51.460;6.148;2023-03-03T00:46:20;43.20;;;24.00;;
38425;SDS011;24210;51.460;6.148;2023-03-03T00:48:46;36.88;;;21.83;;
38425;SDS011;24210;51.460;6.148;2023-03-03T00:51:28;39.17;;;21.77;;
38425;SDS011;24210;51.460;6.148;2023-03-03T00:53:54;38.17;;;22.05;;
38425;SDS011;24210;51.460;6.148;2023-03-03T00:56:19;35.47;;;18.33;;
38425;SDS011;24210;51.460;6.148;2023-03-03T00:58:45;39.67;;;21.30;;
38425;SDS011;24210;51.460;6.148;2023-03-03T01:01:12;31.65;;;16.52;;
38425;SDS011;24210;51.460;6.148;2023-03-03T01:03:37;38.83;;;20.90;;
38425;SDS011;24210;51.460;6.148;2023-03-03T01:06:02;35.67;;;19.13;;
38425;SDS011;24210;51.460;6.148;2023-03-03T01:08:28;27.27;;;15.03;;
38425;SDS011;24210;51.460;6.148;2023-03-03T01:10:54;32.07;;;15.23;;
38425;SDS011;24210;51.460;6.148;2023-03-03T01:13:21;31.08;;;16.25;;
38425;SDS011;24210;51.460;6.148;2023-03-03T01:15:47;39.60;;;21.95;;
38425;SDS011;24210;51.460;6.148;2023-03-03T01:18:13;35.83;;;17.33;;
38425;SDS011;24210;51.460;6.148;2023-03-03T01:20:38;35.50;;;21.17;;
38425;SDS011;24210;51.460;6.148;2023-03-03T01:23:04;36.87;;;20.43;;
38425;SDS011;24210;51.460;6.148;2023-03-03T01:25:29;40.37;;;24.03;;
38425;SDS011;24210;51.460;6.148;2023-03-03T01:27:54;40.07;;;23.20;;
38425;SDS011;24210;51.460;6.148;2023-03-03T01:30:20;44.50;;;24.57;;
38425;SDS011;24210;51.460;6.148;2023-03-03T01:32:45;40.07;;;22.40;;
38425;SDS011;24210;51.460;6.148;2023-03-03T01:35:11;38.40;;;20.43;;
38425;SDS011;24210;51.460;6.148;2023-03-03T01:37:36;34.60;;;17.83;;
38425;SDS011;24210;51.460;6.148;2023-03-03T01:40:02;42.53;;;22.73;;
38425;SDS011;24210;51.460;6.148;2023-03-03T01:42:27;42.53;;;22.73;;
38425;SDS011;24210;51.460;6.148;2023-03-03T01:45:08;39.45;;;21.15;;
38425;SDS011;24210;51.460;6.148;2023-03-03T01:47:34;36.83;;;18.45;;
38425;SDS011;24210;51.460;6.148;2023-03-03T01:50:03;43.00;;;22.10;;
38425;SDS011;24210;51.460;6.148;2023-03-03T01:52:33;37.95;;;20.83;;
38425;SDS011;24210;51.460;6.148;2023-03-03T01:55:07;28.48;;;14.95;;
38425;SDS011;24210;51.460;6.148;2023-03-03T01:57:36;32.40;;;15.98;;
38425;SDS011;24210;51.460;6.148;2023-03-03T02:00:03;32.28;;;16.20;;
38425;SDS011;24210;51.460;6.148;2023-03-03T02:02:29;38.28;;;22.63;;
38425;SDS011;24210;51.460;6.148;2023-03-03T02:04:55;42.72;;;23.73;;
38425;SDS011;24210;51.460;6.148;2023-03-03T02:07:21;38.57;;;21.40;;
38425;SDS011;24210;51.460;6.148;2023-03-03T02:09:49;43.13;;;20.05;;
38425;SDS011;24210;51.460;6.148;2023-03-03T02:12:17;41.08;;;20.38;;
38425;SDS011;24210;51.460;6.148;2023-03-03T02:14:42;44.42;;;21.25;;
38425;SDS011;24210;51.460;6.148;2023-03-03T02:17:08;45.03;;;23.83;;
38425;SDS011;24210;51.460;6.148;2023-03-03T02:22:01;40.17;;;20.27;;
38425;SDS011;24210;51.460;6.148;2023-03-03T02:26:55;36.28;;;19.40;;
38425;SDS011;24210;51.460;6.148;2023-03-03T02:29:21;36.20;;;19.63;;
38425;SDS011;24210;51.460;6.148;2023-03-03T02:31:46;38.30;;;18.27;;
38425;SDS011;24210;51.460;6.148;2023-03-03T02:34:11;36.90;;;16.33;;
38425;SDS011;24210;51.460;6.148;2023-03-03T02:36:37;40.20;;;19.77;;
38425;SDS011;24210;51.460;6.148;2023-03-03T02:39:13;37.50;;;16.13;;
38425;SDS011;24210;51.460;6.148;2023-03-03T02:41:50;42.03;;;19.73;;
38425;SDS011;24210;51.460;6.148;2023-03-03T02:44:21;40.28;;;18.80;;
38425;SDS011;24210;51.460;6.148;2023-03-03T02:46:47;33.78;;;15.00;;
38425;SDS011;24210;51.460;6.148;2023-03-03T02:49:14;44.65;;;20.90;;
38425;SDS011;24210;51.460;6.148;2023-03-03T02:51:39;34.53;;;18.30;;
38425;SDS011;24210;51.460;6.148;2023-03-03T02:54:05;45.60;;;21.80;;
38425;SDS011;24210;51.460;6.148;2023-03-03T02:56:30;45.73;;;22.43;;
38425;SDS011;24210;51.460;6.148;2023-03-03T02:58:56;45.60;;;22.43;;
38425;SDS011;24210;51.460;6.148;2023-03-03T03:01:21;44.60;;;21.97;;
38425;SDS011;24210;51.460;6.148;2023-03-03T03:03:46;44.47;;;21.63;;
38425;SDS011;24210;51.460;6.148;2023-03-03T03:06:11;42.73;;;20.57;;
38425;SDS011;24210;51.460;6.148;2023-03-03T03:08:37;52.87;;;24.37;;
38425;SDS011;24210;51.460;6.148;2023-03-03T03:11:02;49.90;;;23.57;;
38425;SDS011;24210;51.460;6.148;2023-03-03T03:13:27;48.67;;;22.80;;
38425;SDS011;24210;51.460;6.148;2023-03-03T03:15:54;48.20;;;23.35;;
38425;SDS011;24210;51.460;6.148;2023-03-03T03:18:19;49.07;;;24.83;;
38425;SDS011;24210;51.460;6.148;2023-03-03T03:20:44;51.00;;;23.87;;
38425;SDS011;24210;51.460;6.148;2023-03-03T03:23:10;49.43;;;22.70;;
38425;SDS011;24210;51.460;6.148;2023-03-03T03:25:35;43.50;;;19.20;;
38425;SDS011;24210;51.460;6.148;2023-03-03T03:28:09;51.90;;;23.55;;
38425;SDS011;24210;51.460;6.148;2023-03-03T03:30:35;53.17;;;23.77;;
38425;SDS011;24210;51.460;6.148;2023-03-03T03:33:00;52.70;;;24.40;;
38425;SDS011;24210;51.460;6.148;2023-03-03T03:35:25;56.13;;;23.80;;
38425;SDS011;24210;51.460;6.148;2023-03-03T03:37:50;54.97;;;22.27;;
38425;SDS011;24210;51.460;6.148;2023-03-03T03:40:15;58.20;;;26.67;;
38425;SDS011;24210;51.460;6.148;2023-03-03T03:42:41;51.17;;;22.10;;
38425;SDS011;24210;51.460;6.148;2023-03-03T03:45:06;54.87;;;24.47;;
38425;SDS011;24210;51.460;6.148;2023-03-03T03:47:31;60.73;;;25.27;;
38425;SDS011;24210;51.460;6.148;2023-03-03T03:49:57;56.53;;;27.23;;
38425;SDS011;24210;51.460;6.148;2023-03-03T03:52:22;61.73;;;26.90;;
38425;SDS011;24210;51.460;6.148;2023-03-03T03:54:47;59.30;;;22.80;;
38425;SDS011;24210;51.460;6.148;2023-03-03T03:57:12;53.03;;;22.23;;
38425;SDS011;24210;51.460;6.148;2023-03-03T03:59:38;57.00;;;22.37;;
38425;SDS011;24210;51.460;6.148;2023-03-03T04:02:03;53.10;;;21.53;;
38425;SDS011;24210;51.460;6.148;2023-03-03T04:04:28;54.07;;;24.10;;
38425;SDS011;24210;51.460;6.148;2023-03-03T04:06:53;54.47;;;24.63;;
38425;SDS011;24210;51.460;6.148;2023-03-03T04:09:19;54.97;;;23.13;;
38425;SDS011;24210;51.460;6.148;2023-03-03T04:11:44;58.33;;;26.63;;
38425;SDS011;24210;51.460;6.148;2023-03-03T04:14:09;55.50;;;20.80;;
38425;SDS011;24210;51.460;6.148;2023-03-03T04:16:34;50.97;;;25.17;;
38425;SDS011;24210;51.460;6.148;2023-03-03T04:18:59;59.60;;;25.13;;
38425;SDS011;24210;51.460;6.148;2023-03-03T04:21:25;53.70;;;22.83;;
38425;SDS011;24210;51.460;6.148;2023-03-03T04:23:51;51.75;;;24.17;;
38425;SDS011;24210;51.460;6.148;2023-03-03T04:26:17;52.57;;;21.60;;
38425;SDS011;24210;51.460;6.148;2023-03-03T04:28:43;46.77;;;19.27;;
38425;SDS011;24210;51.460;6.148;2023-03-03T04:31:08;54.87;;;24.37;;
38425;SDS011;24210;51.460;6.148;2023-03-03T04:33:33;36.70;;;17.80;;
38425;SDS011;24210;51.460;6.148;2023-03-03T04:36:00;44.80;;;21.45;;
38425;SDS011;24210;51.460;6.148;2023-03-03T04:38:25;45.57;;;22.43;;
38425;SDS011;24210;51.460;6.148;2023-03-03T04:40:50;43.20;;;21.10;;
38425;SDS011;24210;51.460;6.148;2023-03-03T04:43:16;39.17;;;21.93;;
38425;SDS011;24210;51.460;6.148;2023-03-03T04:45:41;46.73;;;20.63;;
38425;SDS011;24210;51.460;6.148;2023-03-03T04:48:07;46.37;;;22.83;;
38425;SDS011;24210;51.460;6.148;2023-03-03T04:50:32;45.60;;;21.53;;
38425;SDS011;24210;51.460;6.148;2023-03-03T04:52:58;46.08;;;23.40;;
38425;SDS011;24210;51.460;6.148;2023-03-03T04:55:24;49.27;;;22.57;;
38425;SDS011;24210;51.460;6.148;2023-03-03T04:57:49;46.97;;;23.57;;
38425;SDS011;24210;51.460;6.148;2023-03-03T05:00:14;47.90;;;23.00;;
38425;SDS011;24210;51.460;6.148;2023-03-03T05:02:40;43.37;;;22.33;;
38425;SDS011;24210;51.460;6.148;2023-03-03T05:05:05;33.47;;;16.57;;
38425;SDS011;24210;51.460;6.148;2023-03-03T05:07:31;33.73;;;17.00;;
38425;SDS011;24210;51.460;6.148;2023-03-03T05:09:56;40.70;;;18.47;;
38425;SDS011;24210;51.460;6.148;2023-03-03T05:12:21;40.37;;;21.73;;
38425;SDS011;24210;51.460;6.148;2023-03-03T05:14:46;35.57;;;17.87;;
38425;SDS011;24210;51.460;6.148;2023-03-03T05:17:12;40.17;;;21.73;;
38425;SDS011;24210;51.460;6.148;2023-03-03T05:19:37;40.87;;;22.63;;
38425;SDS011;24210;51.460;6.148;2023-03-03T05:22:03;38.87;;;21.57;;
38425;SDS011;24210;51.460;6.148;2023-03-03T05:24:28;43.80;;;24.57;;
38425;SDS011;24210;51.460;6.148;2023-03-03T05:26:53;44.13;;;22.97;;
38425;SDS011;24210;51.460;6.148;2023-03-03T05:29:18;38.00;;;21.63;;
38425;SDS011;24210;51.460;6.148;2023-03-03T05:31:44;41.67;;;21.93;;
38425;SDS011;24210;51.460;6.148;2023-03-03T05:34:09;35.30;;;20.67;;
38425;SDS011;24210;51.460;6.148;2023-03-03T05:36:34;37.80;;;22.27;;
38425;SDS011;24210;51.460;6.148;2023-03-03T05:38:59;38.20;;;21.83;;
38425;SDS011;24210;51.460;6.148;2023-03-03T05:41:25;37.30;;;21.53;;
38425;SDS011;24210;51.460;6.148;2023-03-03T05:43:50;40.30;;;22.53;;
38425;SDS011;24210;51.460;6.148;2023-03-03T05:46:15;35.73;;;20.33;;
38425;SDS011;24210;51.460;6.148;2023-03-03T05:48:40;39.27;;;24.27;;
38425;SDS011;24210;51.460;6.148;2023-03-03T05:51:06;37.70;;;22.13;;
38425;SDS011;24210;51.460;6.148;2023-03-03T05:53:31;36.37;;;19.30;;
38425;SDS011;24210;51.460;6.148;2023-03-03T05:55:56;34.37;;;19.00;;
38425;SDS011;24210;51.460;6.148;2023-03-03T05:58:22;33.53;;;19.17;;
38425;SDS011;24210;51.460;6.148;2023-03-03T06:00:47;36.83;;;20.60;;
38425;SDS011;24210;51.460;6.148;2023-03-03T06:03:12;34.07;;;19.40;;
38425;SDS011;24210;51.460;6.148;2023-03-03T06:05:37;31.77;;;18.67;;
38425;SDS011;24210;51.460;6.148;2023-03-03T06:08:03;33.57;;;21.07;;
38425;SDS011;24210;51.460;6.148;2023-03-03T06:10:28;38.13;;;20.37;;
38425;SDS011;24210;51.460;6.148;2023-03-03T06:12:53;36.03;;;20.40;;
38425;SDS011;24210;51.460;6.148;2023-03-03T06:15:19;33.73;;;19.33;;
38425;SDS011;24210;51.460;6.148;2023-03-03T06:17:44;33.50;;;19.77;;
38425;SDS011;24210;51.460;6.148;2023-03-03T06:20:10;33.23;;;20.37;;
38425;SDS011;24210;51.460;6.148;2023-03-03T06:22:35;31.53;;;18.87;;
38425;SDS011;24210;51.460;6.148;2023-03-03T06:25:00;31.33;;;18.07;;
38425;SDS011;24210;51.460;6.148;2023-03-03T06:27:25;37.60;;;21.57;;
38425;SDS011;24210;51.460;6.148;2023-03-03T06:29:51;33.40;;;19.27;;
38425;SDS011;24210;51.460;6.148;2023-03-03T06:32:16;35.13;;;20.87;;
38425;SDS011;24210;51.460;6.148;2023-03-03T06:34:41;35.43;;;21.20;;
38425;SDS011;24210;51.460;6.148;2023-03-03T06:37:06;31.97;;;18.97;;
38425;SDS011;24210;51.460;6.148;2023-03-03T06:39:32;33.93;;;20.40;;
38425;SDS011;24210;51.460;6.148;2023-03-03T06:41:57;36.30;;;21.17;;
38425;SDS011;24210;51.460;6.148;2023-03-03T06:44:22;32.50;;;18.33;;
38425;SDS011;24210;51.460;6.148;2023-03-03T06:46:47;35.03;;;20.50;;
38425;SDS011;24210;51.460;6.148;2023-03-03T06:49:12;33.03;;;18.93;;
38425;SDS011;24210;51.460;6.148;2023-03-03T06:51:38;30.07;;;17.93;;
38425;SDS011;24210;51.460;6.148;2023-03-03T06:56:59;36.53;;;19.92;;
38425;SDS011;24210;51.460;6.148;2023-03-03T07:01:50;34.70;;;20.77;;
38425;SDS011;24210;51.460;6.148;2023-03-03T07:04:19;33.40;;;19.83;;
38425;SDS011;24210;51.460;6.148;2023-03-03T07:06:46;39.58;;;22.75;;
38425;SDS011;24210;51.460;6.148;2023-03-03T07:09:22;35.60;;;21.53;;
38425;SDS011;24210;51.460;6.148;2023-03-03T07:11:49;30.63;;;19.77;;
38425;SDS011;24210;51.460;6.148;2023-03-03T07:14:15;36.08;;;20.98;;
38425;SDS011;24210;51.460;6.148;2023-03-03T07:16:42;37.70;;;19.50;;
38425;SDS011;24210;51.460;6.148;2023-03-03T07:19:13;34.20;;;18.33;;
38425;SDS011;24210;51.460;6.148;2023-03-03T07:21:41;30.77;;;17.38;;
38425;SDS011;24210;51.460;6.148;2023-03-03T07:24:12;29.57;;;16.60;;
38425;SDS011;24210;51.460;6.148;2023-03-03T07:26:40;27.38;;;15.27;;
38425;SDS011;24210;51.460;6.148;2023-03-03T07:29:25;30.13;;;15.60;;
38425;SDS011;24210;51.460;6.148;2023-03-03T07:31:51;26.33;;;14.13;;
38425;SDS011;24210;51.460;6.148;2023-03-03T07:34:21;25.38;;;14.90;;
38425;SDS011;24210;51.460;6.148;2023-03-03T07:36:47;26.38;;;14.27;;
38425;SDS011;24210;51.460;6.148;2023-03-03T07:41:50;28.02;;;16.27;;
38425;SDS011;24210;51.460;6.148;2023-03-03T07:44:23;20.67;;;9.50;;
38425;SDS011;24210;51.460;6.148;2023-03-03T07:46:50;23.85;;;11.63;;
38425;SDS011;24210;51.460;6.148;2023-03-03T07:49:20;33.50;;;16.42;;
38425;SDS011;24210;51.460;6.148;2023-03-03T07:51:46;27.25;;;14.85;;
38425;SDS011;24210;51.460;6.148;2023-03-03T07:54:17;31.07;;;16.73;;
38425;SDS011;24210;51.460;6.148;2023-03-03T07:56:49;28.92;;;15.00;;
38425;SDS011;24210;51.460;6.148;2023-03-03T07:59:17;23.27;;;10.60;;
38425;SDS011;24210;51.460;6.148;2023-03-03T08:01:45;31.40;;;16.48;;
38425;SDS011;24210;51.460;6.148;2023-03-03T08:06:43;26.42;;;12.15;;
38425;SDS011;24210;51.460;6.148;2023-03-03T08:11:36;25.60;;;11.47;;
38425;SDS011;24210;51.460;6.148;2023-03-03T08:14:04;31.13;;;15.75;;
38425;SDS011;24210;51.460;6.148;2023-03-03T08:16:36;25.92;;;14.38;;
38425;SDS011;24210;51.460;6.148;2023-03-03T08:19:02;29.30;;;15.35;;
38425;SDS011;24210;51.460;6.148;2023-03-03T08:23:55;19.88;;;7.88;;
38425;SDS011;24210;51.460;6.148;2023-03-03T08:26:21;30.93;;;16.37;;
38425;SDS011;24210;51.460;6.148;2023-03-03T08:28:46;24.70;;;11.57;;
38425;SDS011;24210;51.460;6.148;2023-03-03T08:31:12;30.67;;;14.90;;
38425;SDS011;24210;51.460;6.148;2023-03-03T08:33:37;29.40;;;16.47;;
38425;SDS011;24210;51.460;6.148;2023-03-03T08:36:03;25.53;;;13.77;;
38425;SDS011;24210;51.460;6.148;2023-03-03T08:38:28;26.47;;;14.80;;
38425;SDS011;24210;51.460;6.148;2023-03-03T08:40:54;29.13;;;14.50;;
38425;SDS011;24210;51.460;6.148;2023-03-03T08:43:19;27.00;;;14.17;;
38425;SDS011;24210;51.460;6.148;2023-03-03T08:45:47;24.33;;;9.98;;
38425;SDS011;24210;51.460;6.148;2023-03-03T08:48:13;29.63;;;15.27;;
38425;SDS011;24210;51.460;6.148;2023-03-03T08:50:38;27.57;;;12.80;;
38425;SDS011;24210;51.460;6.148;2023-03-03T08:53:04;29.50;;;14.47;;
38425;SDS011;24210;51.460;6.148;2023-03-03T08:55:29;21.73;;;9.23;;
38425;SDS011;24210;51.460;6.148;2023-03-03T08:57:54;25.60;;;9.67;;
38425;SDS011;24210;51.460;6.148;2023-03-03T09:00:20;24.30;;;13.27;;
38425;SDS011;24210;51.460;6.148;2023-03-03T09:02:45;25.37;;;12.10;;
38425;SDS011;24210;51.460;6.148;2023-03-03T09:05:11;29.80;;;14.53;;
38425;SDS011;24210;51.460;6.148;2023-03-03T09:07:36;32.53;;;14.97;;
38425;SDS011;24210;51.460;6.148;2023-03-03T09:10:02;25.60;;;11.67;;
38425;SDS011;24210;51.460;6.148;2023-03-03T09:12:35;27.40;;;13.25;;
38425;SDS011;24210;51.460;6.148;2023-03-03T09:17:44;9.80;;;4.63;;
38425;SDS011;24210;51.460;6.148;2023-03-03T09:22:54;24.70;;;12.90;;
38425;SDS011;24210;51.460;6.148;2023-03-03T09:25:26;28.50;;;13.47;;
38425;SDS011;24210;51.460;6.148;2023-03-03T09:27:55;25.80;;;12.40;;
38425;SDS011;24210;51.460;6.148;2023-03-03T09:30:37;29.47;;;14.63;;
38425;SDS011;24210;51.460;6.148;2023-03-03T09:33:18;23.40;;;11.57;;
38425;SDS011;24210;51.460;6.148;2023-03-03T09:35:44;28.60;;;14.82;;
38425;SDS011;24210;51.460;6.148;2023-03-03T09:41:08;18.63;;;9.18;;
38425;SDS011;24210;51.460;6.148;2023-03-03T09:43:47;27.83;;;13.50;;
38425;SDS011;24210;51.460;6.148;2023-03-03T09:46:25;32.22;;;14.07;;
38425;SDS011;24210;51.460;6.148;2023-03-03T09:54:11;28.88;;;14.13;;
38425;SDS011;24210;51.460;6.148;2023-03-03T09:56:40;23.02;;;10.15;;
38425;SDS011;24210;51.460;6.148;2023-03-03T10:01:42;32.55;;;14.88;;
38425;SDS011;24210;51.460;6.148;2023-03-03T10:12:57;30.45;;;14.98;;
38425;SDS011;24210;51.460;6.148;2023-03-03T10:14:58;31.13;;;17.15;;
38425;SDS011;24210;51.460;6.148;2023-03-03T10:22:35;22.03;;;11.03;;
38425;SDS011;24210;51.460;6.148;2023-03-03T10:30:13;25.45;;;13.85;;
38425;SDS011;24210;51.460;6.148;2023-03-03T10:40:54;26.33;;;12.63;;
38425;SDS011;24210;51.460;6.148;2023-03-03T10:43:19;20.55;;;10.00;;
38425;SDS011;24210;51.460;6.148;2023-03-03T10:56:09;26.10;;;14.52;;
38425;SDS011;24210;51.460;6.148;2023-03-03T11:01:10;34.70;;;18.00;;
38425;SDS011;24210;51.460;6.148;2023-03-03T11:03:57;34.60;;;18.88;;
38425;SDS011;24210;51.460;6.148;2023-03-03T11:06:24;32.33;;;17.23;;
38425;SDS011;24210;51.460;6.148;2023-03-03T11:09:05;23.58;;;13.85;;
38425;SDS011;24210;51.460;6.148;2023-03-03T11:11:36;30.35;;;18.75;;
38425;SDS011;24210;51.460;6.148;2023-03-03T11:14:14;29.20;;;16.13;;
38425;SDS011;24210;51.460;6.148;2023-03-03T11:19:20;20.65;;;11.20;;
38425;SDS011;24210;51.460;6.148;2023-03-03T11:27:21;32.90;;;15.20;;
38425;SDS011;24210;51.460;6.148;2023-03-03T11:29:51;23.40;;;13.02;;
38425;SDS011;24210;51.460;6.148;2023-03-03T11:34:52;28.17;;;15.05;;
38425;SDS011;24210;51.460;6.148;2023-03-03T11:37:24;24.30;;;12.30;;
38425;SDS011;24210;51.460;6.148;2023-03-03T11:39:52;22.27;;;12.88;;
38425;SDS011;24210;51.460;6.148;2023-03-03T11:42:25;23.33;;;14.50;;
38425;SDS011;24210;51.460;6.148;2023-03-03T11:44:56;27.13;;;15.30;;
38425;SDS011;24210;51.460;6.148;2023-03-03T11:52:41;28.67;;;16.20;;
38425;SDS011;24210;51.460;6.148;2023-03-03T11:55:08;24.85;;;12.75;;
38425;SDS011;24210;51.460;6.148;2023-03-03T12:03:01;27.95;;;13.35;;
38425;SDS011;24210;51.460;6.148;2023-03-03T12:10:56;28.23;;;14.63;;
38425;SDS011;24210;51.460;6.148;2023-03-03T12:28:51;26.65;;;13.43;;
38425;SDS011;24210;51.460;6.148;2023-03-03T12:31:35;25.10;;;13.52;;
38425;SDS011;24210;51.460;6.148;2023-03-03T12:34:07;22.95;;;12.60;;
38425;SDS011;24210;51.460;6.148;2023-03-03T12:39:28;21.85;;;12.82;;
38425;SDS011;24210;51.460;6.148;2023-03-03T12:45:10;23.60;;;13.30;;
38425;SDS011;24210;51.460;6.148;2023-03-03T12:47:20;22.00;;;12.57;;
38425;SDS011;24210;51.460;6.148;2023-03-03T12:55:01;20.40;;;9.77;;
38425;SDS011;24210;51.460;6.148;2023-03-03T13:10:06;22.23;;;11.70;;
38425;SDS011;24210;51.460;6.148;2023-03-03T13:20:41;20.48;;;11.77;;
38425;SDS011;24210;51.460;6.148;2023-03-03T13:23:26;24.13;;;11.40;;
38425;SDS011;24210;51.460;6.148;2023-03-03T13:25:56;23.77;;;12.15;;
38425;SDS011;24210;51.460;6.148;2023-03-03T13:28:43;20.40;;;11.45;;
38425;SDS011;24210;51.460;6.148;2023-03-03T13:31:20;21.40;;;11.95;;
38425;SDS011;24210;51.460;6.148;2023-03-03T13:36:16;24.40;;;13.35;;
38425;SDS011;24210;51.460;6.148;2023-03-03T13:38:46;25.23;;;14.17;;
38425;SDS011;24210;51.460;6.148;2023-03-03T13:41:16;22.67;;;13.00;;
38425;SDS011;24210;51.460;6.148;2023-03-03T13:58:53;23.37;;;13.70;;
38425;SDS011;24210;51.460;6.148;2023-03-03T14:03:57;23.38;;;11.80;;
38425;SDS011;24210;51.460;6.148;2023-03-03T14:06:26;23.63;;;13.55;;
38425;SDS011;24210;51.460;6.148;2023-03-03T14:09:08;25.52;;;14.10;;
38425;SDS011;24210;51.460;6.148;2023-03-03T14:11:37;28.67;;;14.38;;
38425;SDS011;24210;51.460;6.148;2023-03-03T14:14:11;28.63;;;14.23;;
38425;SDS011;24210;51.460;6.148;2023-03-03T14:21:38;22.40;;;13.60;;
38425;SDS011;24210;51.460;6.148;2023-03-03T14:24:20;23.65;;;13.52;;
38425;SDS011;24210;51.460;6.148;2023-03-03T14:26:53;24.45;;;14.10;;
38425;SDS011;24210;51.460;6.148;2023-03-03T14:29:28;22.58;;;13.52;;
38425;SDS011;24210;51.460;6.148;2023-03-03T14:31:55;22.55;;;13.73;;
38425;SDS011;24210;51.460;6.148;2023-03-03T14:36:50;19.02;;;12.13;;
38425;SDS011;24210;51.460;6.148;2023-03-03T14:39:34;21.50;;;12.57;;
38425;SDS011;24210;51.460;6.148;2023-03-03T14:42:00;20.17;;;11.88;;
38425;SDS011;24210;51.460;6.148;2023-03-03T14:44:30;20.33;;;11.63;;
38425;SDS011;24210;51.460;6.148;2023-03-03T14:47:37;22.63;;;13.20;;
38425;SDS011;24210;51.460;6.148;2023-03-03T14:49:44;21.70;;;12.70;;
38425;SDS011;24210;51.460;6.148;2023-03-03T14:54:42;18.80;;;11.50;;
38425;SDS011;24210;51.460;6.148;2023-03-03T14:59:59;20.08;;;11.45;;
38425;SDS011;24210;51.460;6.148;2023-03-03T15:05:07;21.30;;;11.98;;
38425;SDS011;24210;51.460;6.148;2023-03-03T15:07:35;17.90;;;10.55;;
38425;SDS011;24210;51.460;6.148;2023-03-03T15:10:02;20.60;;;11.65;;
38425;SDS011;24210;51.460;6.148;2023-03-03T15:20:29;18.45;;;11.15;;
38425;SDS011;24210;51.460;6.148;2023-03-03T15:25:27;17.25;;;9.82;;
38425;SDS011;24210;51.460;6.148;2023-03-03T15:28:09;14.07;;;9.27;;
38425;SDS011;24210;51.460;6.148;2023-03-03T15:30:49;20.52;;;11.05;;
38425;SDS011;24210;51.460;6.148;2023-03-03T15:33:35;17.73;;;10.70;;
38425;SDS011;24210;51.460;6.148;2023-03-03T15:38:41;16.85;;;8.70;;
38425;SDS011;24210;51.460;6.148;2023-03-03T15:46:32;15.07;;;9.30;;
38425;SDS011;24210;51.460;6.148;2023-03-03T15:49:18;14.95;;;9.27;;
38425;SDS011;24210;51.460;6.148;2023-03-03T15:54:27;17.30;;;9.18;;
38425;SDS011;24210;51.460;6.148;2023-03-03T15:56:58;15.30;;;9.80;;
38425;SDS011;24210;51.460;6.148;2023-03-03T16:02:20;15.32;;;9.23;;
38425;SDS011;24210;51.460;6.148;2023-03-03T16:05:00;12.40;;;8.80;;
38425;SDS011;24210;51.460;6.148;2023-03-03T16:10:04;12.98;;;8.65;;
38425;SDS011;24210;51.460;6.148;2023-03-03T16:30:38;15.50;;;9.70;;
38425;SDS011;24210;51.460;6.148;2023-03-03T16:33:12;12.95;;;9.93;;
38425;SDS011;24210;51.460;6.148;2023-03-03T16:35:41;13.73;;;9.38;;
38425;SDS011;24210;51.460;6.148;2023-03-03T16:38:12;14.23;;;9.57;;
38425;SDS011;24210;51.460;6.148;2023-03-03T16:40:47;14.93;;;9.02;;
38425;SDS011;24210;51.460;6.148;2023-03-03T16:43:20;14.13;;;9.05;;
38425;SDS011;24210;51.460;6.148;2023-03-03T16:45:46;12.10;;;8.60;;
38425;SDS011;24210;51.460;6.148;2023-03-03T16:48:21;14.03;;;9.03;;
38425;SDS011;24210;51.460;6.148;2023-03-03T16:56:09;19.35;;;9.93;;
38425;SDS011;24210;51.460;6.148;2023-03-03T17:06:15;16.58;;;9.18;;
38425;SDS011;24210;51.460;6.148;2023-03-03T17:08:48;17.25;;;10.05;;
38425;SDS011;24210;51.460;6.148;2023-03-03T17:16:37;14.60;;;9.75;;
38425;SDS011;24210;51.460;6.148;2023-03-03T17:21:34;17.50;;;11.30;;
38425;SDS011;24210;51.460;6.148;2023-03-03T17:40:04;84.13;;;75.97;;
38425;SDS011;24210;51.460;6.148;2023-03-03T17:42:38;46.67;;;41.80;;
38425;SDS011;24210;51.460;6.148;2023-03-03T18:22:49;19.00;;;12.10;;
38425;SDS011;24210;51.460;6.148;2023-03-03T18:25:22;15.77;;;10.43;;
38425;SDS011;24210;51.460;6.148;2023-03-03T18:30:25;17.85;;;9.82;;
38425;SDS011;24210;51.460;6.148;2023-03-03T18:37:44;17.57;;;10.70;;
38425;SDS011;24210;51.460;6.148;2023-03-03T18:42:41;18.85;;;11.00;;
38425;SDS011;24210;51.460;6.148;2023-03-03T18:48:15;15.73;;;10.57;;
38425;SDS011;24210;51.460;6.148;2023-03-03T18:50:37;43.78;;;24.30;;
38425;SDS011;24210;51.460;6.148;2023-03-03T18:55:47;22.88;;;11.85;;
38425;SDS011;24210;51.460;6.148;2023-03-03T19:00:44;15.77;;;9.97;;
38425;SDS011;24210;51.460;6.148;2023-03-03T19:03:26;17.75;;;11.30;;
38425;SDS011;24210;51.460;6.148;2023-03-03T19:05:52;18.95;;;11.60;;
38425;SDS011;24210;51.460;6.148;2023-03-03T19:08:28;17.92;;;11.63;;
38425;SDS011;24210;51.460;6.148;2023-03-03T19:11:00;19.92;;;11.88;;
38425;SDS011;24210;51.460;6.148;2023-03-03T19:15:57;14.48;;;9.57;;
38425;SDS011;24210;51.460;6.148;2023-03-03T19:18:32;17.00;;;11.00;;
38425;SDS011;24210;51.460;6.148;2023-03-03T19:29:28;17.40;;;11.10;;
38425;SDS011;24210;51.460;6.148;2023-03-03T19:34:09;17.57;;;11.07;;
38425;SDS011;24210;51.460;6.148;2023-03-03T19:36:49;18.50;;;11.15;;
38425;SDS011;24210;51.460;6.148;2023-03-03T19:42:01;17.42;;;11.68;;
38425;SDS011;24210;51.460;6.148;2023-03-03T19:46:55;17.73;;;10.10;;
38425;SDS011;24210;51.460;6.148;2023-03-03T20:02:54;7.90;;;6.43;;
38425;SDS011;24210;51.460;6.148;2023-03-03T20:12:55;3.88;;;2.13;;
38425;SDS011;24210;51.460;6.148;2023-03-03T20:15:39;4.65;;;2.90;;
38425;SDS011;24210;51.460;6.148;2023-03-03T20:25:47;2.90;;;1.20;;
38425;SDS011;24210;51.460;6.148;2023-03-03T20:36:10;13.07;;;9.50;;
38425;SDS011;24210;51.460;6.148;2023-03-03T20:41:15;6.47;;;4.43;;
38425;SDS011;24210;51.460;6.148;2023-03-03T20:46:50;3.03;;;1.95;;
38425;SDS011;24210;51.460;6.148;2023-03-03T21:00:12;3.63;;;2.00;;
38425;SDS011;24210;51.460;6.148;2023-03-03T21:04:31;6.07;;;2.17;;
38425;SDS011;24210;51.460;6.148;2023-03-03T21:06:57;3.28;;;1.48;;
38425;SDS011;24210;51.460;6.148;2023-03-03T21:11:50;4.23;;;3.23;;
38425;SDS011;24210;51.460;6.148;2023-03-03T21:14:16;3.30;;;2.40;;